Time;durP1;ratioP1;P1;durP2;ratioP2;P2;SDS_P1;SDS_P2;PMS_P1;PMS_P2;Temp;Humidity;BMP_temperature;BMP_pressure;BME280_temperature;BME280_humidity;BME280_pressure;Samples;Min_cycle;Max_cycle;Signal;HPM_P1;HPM_P2
2023/01/09 00:01:00;;;;;;;5.85;2.95;;;6.00;99.90;;;;;;6151886;23;20025;-83
2023/01/09 00:03:26;;;;;;;7.70;2.75;;;6.10;99.90;;;;;;6151752;23;20496;-83
2023/01/09 00:05:52;;;;;;;7.63;3.13;;;6.10;99.90;;;;;;6151077;23;20028;-82
2023/01/09 00:08:18;;;;;;;6.90;3.17;;;6.20;99.90;;;;;;6151580;23;20471;-82
2023/01/09 00:10:43;;;;;;;8.20;3.00;;;6.20;99.90;;;;;;6152950;23;20036;-82
2023/01/09 00:13:13;;;;;;;6.03;2.95;;;6.30;99.90;;;;;;6151305;23;20441;-83
2023/01/09 00:15:39;;;;;;;7.18;3.05;;;6.30;99.90;;;;;;6150954;23;20020;-83
2023/01/09 00:18:05;;;;;;;6.55;3.05;;;6.50;99.90;;;;;;6151271;23;20028;-82
2023/01/09 00:20:31;;;;;;;6.13;3.08;;;6.50;99.90;;;;;;6153446;23;20433;-83
2023/01/09 00:22:56;;;;;;;7.22;2.90;;;6.60;99.90;;;;;;6153346;23;20013;-83
2023/01/09 00:25:22;;;;;;;7.47;2.78;;;6.60;99.90;;;;;;6152041;23;20014;-83
2023/01/09 00:27:48;;;;;;;7.25;2.88;;;6.70;99.90;;;;;;6151513;23;20026;-83
2023/01/09 00:30:13;;;;;;;7.63;3.22;;;6.90;99.90;;;;;;6151432;23;20044;-83
2023/01/09 00:32:39;;;;;;;9.02;3.55;;;7.00;99.90;;;;;;6152747;23;20048;-84
2023/01/09 00:35:08;;;;;;;7.53;3.67;;;7.00;99.90;;;;;;6154132;23;20044;-83
2023/01/09 00:37:34;;;;;;;8.82;3.85;;;7.00;99.90;;;;;;6151747;23;20037;-82
2023/01/09 00:40:00;;;;;;;5.55;2.75;;;7.00;99.90;;;;;;6150935;23;20081;-83
2023/01/09 00:42:29;;;;;;;3.75;1.58;;;7.00;99.90;;;;;;6151486;23;20009;-83
2023/01/09 00:44:58;;;;;;;4.60;1.42;;;6.90;99.90;;;;;;6150938;23;20018;-83
2023/01/09 00:47:32;;;;;;;3.70;1.25;;;7.30;99.90;;;;;;6151748;23;20021;-82
2023/01/09 00:50:01;;;;;;;3.70;1.40;;;6.80;99.90;;;;;;6153544;23;20010;-82
2023/01/09 00:52:30;;;;;;;3.22;1.23;;;6.70;99.90;;;;;;6126793;23;20087;-82
2023/01/09 00:54:57;;;;;;;2.00;1.10;;;7.00;99.90;;;;;;6150216;23;20017;-82
2023/01/09 00:57:23;;;;;;;4.50;1.17;;;6.50;99.90;;;;;;6151158;23;20047;-83
2023/01/09 00:59:49;;;;;;;1.83;0.90;;;6.80;99.90;;;;;;6151167;23;20436;-82
2023/01/09 01:02:14;;;;;;;2.10;0.90;;;6.60;99.90;;;;;;6151121;23;20017;-82
2023/01/09 01:07:40;;;;;;;2.88;1.02;;;6.60;99.90;;;;;;6150622;23;20021;-82
2023/01/09 01:10:09;;;;;;;4.82;1.20;;;6.30;99.90;;;;;;6153052;23;20017;-82
2023/01/09 01:12:36;;;;;;;2.58;1.10;;;6.20;99.90;;;;;;6152952;23;20018;-82
2023/01/09 01:15:03;;;;;;;3.00;1.10;;;6.20;99.90;;;;;;6150455;23;20325;-83
2023/01/09 01:17:28;;;;;;;4.80;1.45;;;6.20;99.90;;;;;;6151003;23;20087;-82
2023/01/09 01:19:55;;;;;;;2.65;1.27;;;6.10;99.90;;;;;;6151821;23;20017;-82
2023/01/09 01:22:20;;;;;;;4.18;1.70;;;6.10;99.90;;;;;;6152106;23;20431;-83
2023/01/09 01:24:46;;;;;;;5.00;1.80;;;6.10;99.90;;;;;;6150450;23;20041;-82
2023/01/09 01:27:11;;;;;;;5.18;2.40;;;6.10;99.90;;;;;;6150637;23;20021;-82
2023/01/09 01:29:37;;;;;;;5.22;2.33;;;6.20;99.90;;;;;;6151148;23;20065;-82
2023/01/09 01:32:03;;;;;;;4.78;3.03;;;6.10;99.90;;;;;;6150854;23;20021;-82
2023/01/09 01:34:29;;;;;;;9.50;3.92;;;5.60;99.90;;;;;;6126005;23;20040;-82
2023/01/09 01:36:54;;;;;;;9.07;4.13;;;6.20;99.90;;;;;;6152109;23;20010;-82
2023/01/09 01:39:20;;;;;;;7.70;4.05;;;6.10;99.90;;;;;;6150723;23;20013;-83
2023/01/09 01:41:46;;;;;;;10.65;4.05;;;6.20;99.90;;;;;;6150521;23;20013;-83
2023/01/09 01:44:49;;;;;;;9.27;4.55;;;6.40;99.90;;;;;;6150609;23;20009;-82
2023/01/09 01:47:17;;;;;;;7.75;4.18;;;6.20;99.90;;;;;;6152777;23;20025;-83
2023/01/09 01:49:43;;;;;;;8.60;3.63;;;6.20;99.90;;;;;;6126149;23;20018;-82
2023/01/09 01:52:09;;;;;;;9.00;3.65;;;6.20;99.90;;;;;;6151748;23;20556;-83
2023/01/09 01:54:35;;;;;;;6.90;3.60;;;6.20;99.90;;;;;;6150118;23;20018;-82
2023/01/09 01:57:03;;;;;;;6.95;3.40;;;6.20;99.90;;;;;;6150828;23;20020;-83
2023/01/09 01:59:35;;;;;;;8.10;3.28;;;6.80;99.90;;;;;;6153010;23;20006;-82
2023/01/09 02:02:02;;;;;;;7.28;2.90;;;6.50;99.90;;;;;;6150792;23;20085;-82
2023/01/09 02:04:29;;;;;;;5.30;2.80;;;6.60;99.90;;;;;;6150480;23;20436;-82
2023/01/09 02:06:55;;;;;;;5.53;2.80;;;6.40;99.90;;;;;;6150042;23;20025;-82
2023/01/09 02:09:22;;;;;;;4.97;2.58;;;6.40;99.90;;;;;;6151222;23;20025;-83
2023/01/09 02:11:53;;;;;;;6.28;2.80;;;6.50;99.90;;;;;;6152664;23;20063;-83
2023/01/09 02:14:20;;;;;;;5.50;2.53;;;6.70;99.90;;;;;;6150189;23;20017;-82
2023/01/09 02:17:09;;;;;;;6.20;3.05;;;6.70;99.90;;;;;;6152438;23;20076;-83
2023/01/09 02:19:53;;;;;;;6.40;2.80;;;6.40;99.90;;;;;;6152706;23;20006;-82
2023/01/09 02:22:42;;;;;;;8.10;2.90;;;6.40;99.90;;;;;;6152027;23;20309;-82
2023/01/09 02:26:03;;;;;;;8.07;2.90;;;6.30;99.90;;;;;;6152103;23;20005;-82
2023/01/09 02:28:49;;;;;;;5.65;3.00;;;6.30;99.90;;;;;;6058832;23;20049;-82
2023/01/09 02:31:30;;;;;;;6.50;3.20;;;6.20;99.90;;;;;;6066595;23;20081;-83
2023/01/09 02:34:01;;;;;;;5.82;3.05;;;6.20;99.90;;;;;;6042176;23;20014;-82
2023/01/09 02:36:29;;;;;;;6.80;3.10;;;6.20;99.90;;;;;;6089989;23;20105;-82
2023/01/09 02:39:19;;;;;;;9.48;3.22;;;6.10;99.90;;;;;;6090246;23;20015;-82
2023/01/09 02:41:52;;;;;;;10.23;3.60;;;6.10;99.90;;;;;;6066437;23;20022;-82
2023/01/09 02:44:26;;;;;;;9.80;3.60;;;6.00;99.90;;;;;;6066133;23;20018;-83
2023/01/09 02:47:06;;;;;;;9.95;3.33;;;6.00;99.90;;;;;;6066186;23;20102;-83
2023/01/09 02:49:38;;;;;;;6.13;3.67;;;6.20;99.90;;;;;;6065720;23;20018;-82
2023/01/09 02:52:31;;;;;;;8.20;3.33;;;5.90;99.90;;;;;;6065910;23;20019;-82
2023/01/09 02:55:27;;;;;;;9.60;3.50;;;5.90;99.90;;;;;;6065963;23;20015;-82
2023/01/09 02:58:04;;;;;;;8.70;3.72;;;5.80;99.90;;;;;;6070712;23;20046;-82
2023/01/09 03:00:56;;;;;;;8.27;3.58;;;5.80;99.90;;;;;;6067090;23;20090;-82
2023/01/09 03:03:41;;;;;;;11.38;4.30;;;5.80;99.90;;;;;;6093080;23;20052;-82
2023/01/09 03:06:14;;;;;;;10.77;4.13;;;5.70;99.90;;;;;;6152328;23;20017;-82
2023/01/09 03:08:44;;;;;;;12.00;4.07;;;5.70;99.90;;;;;;6152129;23;20028;-83
2023/01/09 03:11:10;;;;;;;10.15;4.40;;;5.60;99.90;;;;;;6150162;23;20024;-82
2023/01/09 03:13:52;;;;;;;10.40;4.38;;;5.60;99.90;;;;;;6151200;23;20021;-83
2023/01/09 03:16:28;;;;;;;13.57;4.70;;;5.50;99.90;;;;;;6150193;23;20048;-82
2023/01/09 03:18:56;;;;;;;8.90;4.75;;;5.50;99.90;;;;;;6151508;23;20045;-82
2023/01/09 03:21:22;;;;;;;13.10;4.88;;;5.60;99.90;;;;;;6150174;23;20013;-82
2023/01/09 03:23:53;;;;;;;10.38;5.13;;;5.50;99.90;;;;;;6149608;23;20013;-82
2023/01/09 03:26:19;;;;;;;11.75;5.20;;;5.50;99.90;;;;;;6150204;23;20075;-82
2023/01/09 03:28:46;;;;;;;11.07;5.43;;;5.50;99.90;;;;;;6149877;23;20045;-83
2023/01/09 03:31:12;;;;;;;12.20;5.22;;;5.40;99.90;;;;;;6150053;23;20029;-83
2023/01/09 03:33:37;;;;;;;11.32;5.80;;;5.40;99.90;;;;;;6150729;23;20013;-83
2023/01/09 03:36:04;;;;;;;13.90;5.13;;;5.30;99.90;;;;;;6149719;23;20013;-82
2023/01/09 03:38:29;;;;;;;12.15;5.20;;;5.30;99.90;;;;;;6149935;23;20352;-83
2023/01/09 03:40:55;;;;;;;12.25;5.78;;;5.50;99.90;;;;;;6149961;23;20013;-82
2023/01/09 03:43:21;;;;;;;11.23;5.57;;;5.20;99.90;;;;;;6149694;23;20021;-82
2023/01/09 03:45:46;;;;;;;17.80;6.97;;;5.10;99.90;;;;;;6153025;23;20016;-82
2023/01/09 03:48:12;;;;;;;15.32;6.18;;;5.30;99.90;;;;;;6150195;23;20285;-83
2023/01/09 03:50:37;;;;;;;18.00;6.43;;;5.30;99.90;;;;;;6152000;23;20048;-82
2023/01/09 03:53:03;;;;;;;12.73;6.63;;;5.10;99.90;;;;;;6149967;23;20528;-82
2023/01/09 03:55:29;;;;;;;17.05;6.28;;;5.00;99.90;;;;;;6149578;23;20024;-82
2023/01/09 03:57:54;;;;;;;14.40;6.97;;;4.90;99.90;;;;;;6149775;23;20021;-82
2023/01/09 04:00:20;;;;;;;15.63;6.88;;;4.90;99.90;;;;;;6150212;23;20017;-83
2023/01/09 04:02:46;;;;;;;15.48;7.50;;;4.90;99.90;;;;;;6151517;23;20013;-82
2023/01/09 04:05:12;;;;;;;16.42;7.82;;;4.90;99.90;;;;;;6150927;23;20020;-83
2023/01/09 04:07:37;;;;;;;19.80;8.15;;;4.80;99.90;;;;;;6153347;23;20020;-82
2023/01/09 04:10:04;;;;;;;21.92;8.32;;;4.80;99.90;;;;;;6151609;23;20024;-82
2023/01/09 04:12:29;;;;;;;19.10;7.55;;;4.80;99.90;;;;;;6153811;23;20021;-82
2023/01/09 04:14:55;;;;;;;18.77;8.07;;;4.80;99.90;;;;;;6150939;23;20026;-82
2023/01/09 04:17:20;;;;;;;18.52;8.10;;;4.80;99.90;;;;;;6151090;23;20021;-82
2023/01/09 04:19:46;;;;;;;14.40;7.95;;;4.70;99.90;;;;;;6153770;23;20089;-83
2023/01/09 04:22:12;;;;;;;17.77;8.38;;;4.70;99.90;;;;;;6152083;23;20144;-82
2023/01/09 04:24:37;;;;;;;15.27;7.10;;;4.70;99.90;;;;;;6153123;23;20476;-82
2023/01/09 04:27:03;;;;;;;25.42;9.15;;;4.70;99.90;;;;;;6151494;23;20017;-82
2023/01/09 04:29:28;;;;;;;25.25;9.55;;;4.70;99.90;;;;;;6127440;23;20029;-82
2023/01/09 04:31:54;;;;;;;16.33;8.73;;;4.70;99.90;;;;;;6152736;23;20017;-82
2023/01/09 04:34:24;;;;;;;24.60;9.85;;;4.70;99.90;;;;;;6151410;23;20348;-83
2023/01/09 04:36:53;;;;;;;20.30;9.23;;;4.70;99.90;;;;;;6152500;23;20025;-82
2023/01/09 04:39:20;;;;;;;21.02;9.68;;;4.70;99.90;;;;;;6153484;23;20014;-83
2023/01/09 04:41:48;;;;;;;20.25;9.35;;;4.70;99.90;;;;;;6151398;23;20024;-82
2023/01/09 04:44:20;;;;;;;23.05;9.30;;;4.70;99.90;;;;;;6126656;23;20013;-83
2023/01/09 04:46:46;;;;;;;23.70;9.63;;;4.60;99.90;;;;;;6150831;23;20014;-83
2023/01/09 04:49:12;;;;;;;19.08;9.68;;;5.10;99.90;;;;;;6153512;23;20013;-82
2023/01/09 04:51:38;;;;;;;19.17;10.02;;;4.60;99.90;;;;;;6126784;23;20020;-82
2023/01/09 04:54:04;;;;;;;22.83;10.77;;;4.60;99.90;;;;;;6151034;23;20407;-83
2023/01/09 04:56:30;;;;;;;18.88;10.65;;;4.50;99.90;;;;;;6151184;23;20024;-82
2023/01/09 04:58:55;;;;;;;21.27;11.68;;;4.50;99.90;;;;;;6151183;23;20076;-82
2023/01/09 05:01:22;;;;;;;19.98;10.57;;;4.50;99.90;;;;;;6150703;23;20538;-83
2023/01/09 05:03:48;;;;;;;23.05;11.35;;;4.50;99.90;;;;;;6152240;23;20064;-82
2023/01/09 05:06:13;;;;;;;30.77;12.32;;;4.50;99.90;;;;;;6150739;23;20014;-83
2023/01/09 05:08:39;;;;;;;24.48;12.80;;;4.50;99.90;;;;;;6150689;23;20017;-82
2023/01/09 05:11:05;;;;;;;26.05;13.63;;;4.60;99.90;;;;;;6150758;23;20163;-83
2023/01/09 05:13:30;;;;;;;25.77;14.30;;;4.60;99.90;;;;;;6126223;23;20092;-82
2023/01/09 05:15:56;;;;;;;28.83;14.65;;;4.70;99.90;;;;;;6151116;23;20433;-82
2023/01/09 05:18:21;;;;;;;23.27;14.90;;;4.90;99.90;;;;;;6151683;23;20161;-82
2023/01/09 05:20:47;;;;;;;26.35;15.05;;;4.90;99.90;;;;;;6152064;23;20099;-82
2023/01/09 05:23:13;;;;;;;28.40;16.27;;;5.10;99.90;;;;;;6152650;23;20453;-82
2023/01/09 05:25:38;;;;;;;30.17;17.25;;;5.00;99.90;;;;;;6152355;23;20021;-82
2023/01/09 05:28:04;;;;;;;29.20;17.13;;;5.10;99.90;;;;;;6152288;23;20093;-82
2023/01/09 05:30:29;;;;;;;33.13;17.33;;;5.10;99.90;;;;;;6151481;23;20101;-82
2023/01/09 05:32:55;;;;;;;28.65;18.50;;;5.10;99.90;;;;;;6153876;23;20071;-82
2023/01/09 05:35:21;;;;;;;31.95;19.63;;;5.20;99.90;;;;;;6151810;23;20028;-85
2023/01/09 05:37:46;;;;;;;33.22;20.23;;;5.20;99.90;;;;;;6146673;23;20022;-85
2023/01/09 05:40:12;;;;;;;34.63;21.20;;;5.20;99.90;;;;;;6151161;23;20448;-84
2023/01/09 05:42:38;;;;;;;34.53;21.58;;;5.30;99.90;;;;;;6126621;23;20016;-84
2023/01/09 05:45:05;;;;;;;36.65;22.85;;;5.30;99.90;;;;;;6150943;23;20013;-84
2023/01/09 05:47:30;;;;;;;36.65;23.15;;;5.30;99.90;;;;;;6151424;23;20018;-84
2023/01/09 05:49:56;;;;;;;36.83;23.75;;;5.30;99.90;;;;;;6127091;23;20033;-84
2023/01/09 05:52:23;;;;;;;35.42;24.30;;;5.50;99.90;;;;;;6126983;23;20459;-83
2023/01/09 05:54:48;;;;;;;40.40;24.67;;;5.30;99.90;;;;;;6151080;23;20021;-83
2023/01/09 05:57:14;;;;;;;37.53;24.35;;;5.30;99.90;;;;;;6150649;23;20080;-84
2023/01/09 05:59:40;;;;;;;40.50;24.67;;;5.50;99.90;;;;;;6153204;23;20044;-83
2023/01/09 06:02:05;;;;;;;37.53;25.33;;;5.40;99.90;;;;;;6153080;23;20006;-84
2023/01/09 06:04:31;;;;;;;40.40;24.70;;;5.60;99.90;;;;;;6153439;23;20012;-84
2023/01/09 06:06:57;;;;;;;37.95;24.70;;;5.40;99.90;;;;;;6153357;23;20037;-84
2023/01/09 06:09:23;;;;;;;33.45;24.70;;;5.40;99.90;;;;;;6153035;23;20332;-84
2023/01/09 06:11:48;;;;;;;37.53;26.63;;;5.40;99.90;;;;;;6152797;23;20092;-84
2023/01/09 06:14:14;;;;;;;35.65;26.63;;;5.40;99.90;;;;;;6151245;23;20068;-83
2023/01/09 06:16:39;;;;;;;36.08;25.98;;;5.50;99.90;;;;;;6149745;23;20021;-84
2023/01/09 06:19:05;;;;;;;33.67;24.58;;;5.50;99.90;;;;;;6149580;23;20441;-83
2023/01/09 06:21:32;;;;;;;39.08;25.40;;;5.50;99.90;;;;;;6126675;23;20009;-85
2023/01/09 06:23:58;;;;;;;36.45;27.35;;;5.50;99.90;;;;;;6151317;23;20441;-83
2023/01/09 06:26:24;;;;;;;38.63;26.60;;;5.50;99.90;;;;;;6150827;23;20013;-83
2023/01/09 06:28:50;;;;;;;39.55;25.73;;;5.50;99.90;;;;;;6153053;23;20017;-83
2023/01/09 06:31:16;;;;;;;41.33;26.58;;;5.60;99.90;;;;;;6153305;23;20016;-83
2023/01/09 06:33:41;;;;;;;38.42;26.88;;;5.60;99.90;;;;;;6151014;23;20009;-84
2023/01/09 06:36:07;;;;;;;38.20;25.60;;;5.60;99.90;;;;;;6151711;23;20016;-83
2023/01/09 06:38:33;;;;;;;34.20;25.48;;;5.60;99.90;;;;;;6152972;23;20084;-83
2023/01/09 06:40:59;;;;;;;32.17;25.38;;;5.60;99.90;;;;;;6126076;23;20088;-83
2023/01/09 06:43:24;;;;;;;38.10;25.55;;;5.60;99.90;;;;;;6150768;23;20080;-83
2023/01/09 06:45:50;;;;;;;35.05;24.95;;;5.80;99.90;;;;;;6153165;23;20052;-83
2023/01/09 06:48:16;;;;;;;37.80;25.25;;;5.60;99.90;;;;;;6148276;23;20021;-84
2023/01/09 06:50:41;;;;;;;34.72;24.88;;;5.70;99.90;;;;;;6153339;23;20021;-85
2023/01/09 06:53:09;;;;;;;33.33;23.70;;;5.70;99.90;;;;;;6151211;23;20340;-84
2023/01/09 06:55:35;;;;;;;36.13;23.63;;;5.60;99.90;;;;;;6151264;23;20036;-85
2023/01/09 06:58:00;;;;;;;30.73;23.63;;;5.60;99.90;;;;;;6126896;23;20449;-85
2023/01/09 07:00:26;;;;;;;33.55;23.90;;;5.80;99.90;;;;;;6133525;23;20013;-85
2023/01/09 07:02:52;;;;;;;34.03;21.17;;;5.60;99.90;;;;;;6154342;23;20009;-86
2023/01/09 07:05:17;;;;;;;29.30;22.00;;;5.60;99.90;;;;;;6152868;23;20020;-85
2023/01/09 07:07:43;;;;;;;33.85;22.05;;;5.80;99.90;;;;;;6150940;23;20049;-85
2023/01/09 07:10:10;;;;;;;29.50;21.15;;;5.60;99.90;;;;;;6150925;23;20013;-86
2023/01/09 07:12:35;;;;;;;26.98;20.15;;;5.60;99.90;;;;;;6152777;23;20441;-85
2023/01/09 07:15:01;;;;;;;32.50;20.77;;;5.60;99.90;;;;;;6153015;23;20016;-85
2023/01/09 07:17:26;;;;;;;29.52;19.67;;;5.60;99.90;;;;;;6153195;23;20022;-84
2023/01/09 07:19:52;;;;;;;23.75;17.92;;;5.60;99.90;;;;;;6150994;23;20340;-84
2023/01/09 07:22:18;;;;;;;25.63;18.58;;;5.50;99.90;;;;;;6152328;23;20013;-81
2023/01/09 07:24:44;;;;;;;26.20;18.88;;;5.50;99.90;;;;;;6151324;23;20009;-85
2023/01/09 07:27:10;;;;;;;22.27;17.35;;;5.50;99.90;;;;;;6152472;23;20432;-85
2023/01/09 07:29:36;;;;;;;21.77;17.42;;;5.40;99.90;;;;;;6126490;23;20017;-83
2023/01/09 07:32:02;;;;;;;28.45;17.63;;;6.00;99.90;;;;;;6152235;23;20310;-83
2023/01/09 07:34:28;;;;;;;26.52;16.00;;;5.30;99.90;;;;;;6150713;23;20025;-84
2023/01/09 07:36:53;;;;;;;20.63;15.38;;;5.70;99.90;;;;;;6152854;23;20013;-84
2023/01/09 07:39:19;;;;;;;21.23;15.60;;;5.20;99.90;;;;;;6153278;23;20432;-84
2023/01/09 07:41:45;;;;;;;23.35;15.38;;;5.20;99.90;;;;;;6127949;23;20309;-83
2023/01/09 07:44:11;;;;;;;25.27;16.30;;;5.20;99.90;;;;;;6152659;23;20436;-83
2023/01/09 07:46:37;;;;;;;24.77;15.55;;;5.10;99.90;;;;;;6152485;23;20092;-83
2023/01/09 07:49:03;;;;;;;26.48;15.90;;;5.10;99.90;;;;;;6157064;23;20011;-84
2023/01/09 07:51:28;;;;;;;26.85;15.05;;;5.10;99.90;;;;;;6154175;23;20006;-83
2023/01/09 07:53:54;;;;;;;25.63;15.27;;;5.30;99.90;;;;;;6152092;23;20072;-83
2023/01/09 07:56:20;;;;;;;29.88;15.80;;;5.70;99.90;;;;;;6152189;23;20048;-83
2023/01/09 07:58:45;;;;;;;22.23;15.07;;;5.30;99.90;;;;;;6154569;23;20421;-85
2023/01/09 08:01:11;;;;;;;20.83;15.18;;;5.00;99.90;;;;;;6154053;23;20018;-84
2023/01/09 08:03:37;;;;;;;22.90;15.80;;;4.90;99.90;;;;;;6127209;23;20049;-85
2023/01/09 08:06:03;;;;;;;22.65;15.25;;;4.90;99.90;;;;;;6152400;23;20021;-83
2023/01/09 08:08:28;;;;;;;22.95;14.77;;;5.00;99.90;;;;;;6127062;23;20017;-83
2023/01/09 08:10:54;;;;;;;24.13;14.63;;;5.00;99.90;;;;;;6152372;23;20453;-84
2023/01/09 08:13:20;;;;;;;23.77;14.13;;;5.00;99.90;;;;;;6127809;23;20017;-84
2023/01/09 08:15:46;;;;;;;26.73;14.70;;;5.10;99.90;;;;;;6126141;23;20022;-84
2023/01/09 08:18:11;;;;;;;18.15;12.90;;;5.10;99.90;;;;;;6154500;23;20021;-84
2023/01/09 08:20:37;;;;;;;20.70;12.07;;;5.50;99.90;;;;;;6152338;23;20009;-84
2023/01/09 08:23:02;;;;;;;18.10;11.95;;;5.30;99.90;;;;;;6152181;23;20355;-84
2023/01/09 08:25:28;;;;;;;19.83;12.13;;;5.30;99.90;;;;;;6153770;23;20076;-84
2023/01/09 08:27:54;;;;;;;24.10;12.60;;;5.30;99.90;;;;;;6152899;23;20017;-84
2023/01/09 08:30:20;;;;;;;20.85;12.13;;;5.50;99.90;;;;;;6127728;23;20096;-82
2023/01/09 08:32:52;;;;;;;17.95;10.77;;;5.40;99.90;;;;;;6152093;23;20085;-84
2023/01/09 08:35:19;;;;;;;19.08;11.13;;;5.40;99.90;;;;;;6152534;23;20018;-84
2023/01/09 08:37:46;;;;;;;16.77;10.23;;;5.70;99.90;;;;;;6158663;23;20033;-85
2023/01/09 08:40:13;;;;;;;17.75;10.25;;;5.50;99.90;;;;;;6153347;23;20013;-84
2023/01/09 08:48:07;;;;;;;19.05;10.98;;;5.60;99.90;;;;;;6151984;23;20357;-84
2023/01/09 08:50:33;;;;;;;16.05;9.98;;;5.60;99.90;;;;;;6153350;23;20017;-85
2023/01/09 08:52:59;;;;;;;13.43;9.20;;;5.60;99.90;;;;;;6127570;23;20156;-85
2023/01/09 08:55:24;;;;;;;23.33;9.65;;;5.80;99.90;;;;;;6152251;23;20010;-86
2023/01/09 08:57:52;;;;;;;15.60;9.18;;;5.70;99.90;;;;;;6154048;23;20440;-85
2023/01/09 09:00:20;;;;;;;13.32;8.70;;;5.80;99.90;;;;;;6153782;23;20005;-84
2023/01/09 09:02:51;;;;;;;13.25;8.50;;;5.80;99.90;;;;;;6152354;23;20080;-84
2023/01/09 09:05:17;;;;;;;15.68;8.45;;;5.80;99.90;;;;;;6153777;23;20084;-85
2023/01/09 09:07:43;;;;;;;14.63;7.75;;;5.90;99.90;;;;;;6152017;23;20025;-83
2023/01/09 09:10:09;;;;;;;20.00;8.25;;;5.90;99.90;;;;;;6151059;23;20018;-83
2023/01/09 09:12:35;;;;;;;15.65;8.98;;;5.90;99.90;;;;;;6152755;23;20349;-83
2023/01/09 09:15:15;;;;;;;14.50;8.02;;;6.00;99.90;;;;;;6153216;23;20013;-84
2023/01/09 09:17:41;;;;;;;16.65;7.93;;;6.00;99.90;;;;;;6154009;23;20053;-83
2023/01/09 09:20:08;;;;;;;12.05;7.28;;;6.00;99.90;;;;;;6127450;23;20013;-83
2023/01/09 09:22:34;;;;;;;13.27;7.40;;;6.10;99.90;;;;;;6126559;23;20013;-84
2023/01/09 09:25:01;;;;;;;13.38;7.03;;;6.10;99.90;;;;;;6152760;23;20009;-84
2023/01/09 09:27:27;;;;;;;13.55;7.00;;;6.10;99.90;;;;;;6160002;23;20450;-83
2023/01/09 09:29:52;;;;;;;12.60;7.20;;;6.20;99.90;;;;;;6152424;23;20020;-83
2023/01/09 09:32:18;;;;;;;17.70;9.20;;;6.20;99.90;;;;;;6151960;23;20352;-83
2023/01/09 09:34:43;;;;;;;13.25;6.72;;;6.30;99.90;;;;;;6151427;23;20025;-81
2023/01/09 09:37:09;;;;;;;12.90;6.47;;;6.30;99.90;;;;;;6149233;23;20425;-85
2023/01/09 09:39:35;;;;;;;15.93;6.25;;;6.30;99.90;;;;;;6151433;23;20013;-85
2023/01/09 09:45:16;;;;;;;13.18;7.00;;;6.40;99.90;;;;;;6151023;23;20013;-84
2023/01/09 09:47:57;;;;;;;12.80;6.82;;;6.40;99.90;;;;;;6151335;23;20028;-85
2023/01/09 09:50:35;;;;;;;14.10;6.82;;;6.40;99.90;;;;;;6150789;23;20060;-84
2023/01/09 09:53:10;;;;;;;17.02;7.13;;;6.50;99.90;;;;;;6151895;23;20088;-84
2023/01/09 09:55:40;;;;;;;21.50;6.97;;;6.50;99.90;;;;;;6127104;23;20017;-85
2023/01/09 09:58:27;;;;;;;15.13;6.63;;;6.60;99.90;;;;;;6151254;23;20018;-85
2023/01/09 10:00:54;;;;;;;15.80;6.70;;;6.60;99.90;;;;;;6153301;23;20010;-85
2023/01/09 10:03:31;;;;;;;15.40;8.15;;;6.70;99.90;;;;;;6153139;23;20009;-85
2023/01/09 10:05:59;;;;;;;18.55;7.65;;;6.70;99.90;;;;;;6152668;23;20005;-84
2023/01/09 10:08:55;;;;;;;12.20;6.57;;;6.70;99.90;;;;;;6153192;23;20025;-84
2023/01/09 10:11:41;;;;;;;13.75;6.28;;;6.70;99.90;;;;;;6151556;23;20448;-84
2023/01/09 10:14:10;;;;;;;12.90;6.00;;;6.70;99.90;;;;;;6151418;23;20018;-85
2023/01/09 10:16:46;;;;;;;13.95;5.93;;;6.70;99.90;;;;;;6132065;23;20017;-84
2023/01/09 10:19:26;;;;;;;14.80;6.28;;;6.80;99.90;;;;;;6153849;23;20070;-85
2023/01/09 10:21:58;;;;;;;11.77;5.97;;;6.80;99.90;;;;;;6127096;23;20014;-84
2023/01/09 10:24:33;;;;;;;16.00;5.90;;;6.90;99.90;;;;;;6151064;23;20014;-84
2023/01/09 10:27:07;;;;;;;12.20;5.28;;;6.90;99.90;;;;;;6126762;23;20013;-84
2023/01/09 10:29:34;;;;;;;;;;;6.90;99.90;;;;;;6153407;23;20105;-84
2023/01/09 10:32:03;;;;;;;17.67;5.57;;;6.90;99.90;;;;;;6126636;23;19947;-84
2023/01/09 10:34:51;;;;;;;11.52;5.50;;;6.90;99.90;;;;;;6150564;23;20010;-84
2023/01/09 10:37:30;;;;;;;10.40;5.53;;;6.90;99.90;;;;;;6151061;23;20014;-83
2023/01/09 10:40:23;;;;;;;10.18;4.75;;;6.90;99.90;;;;;;6153107;23;20010;-83
2023/01/09 10:42:51;;;;;;;18.77;5.57;;;7.00;99.90;;;;;;6152546;23;20017;-84
2023/01/09 10:45:25;;;;;;;12.52;5.15;;;7.00;99.90;;;;;;6151913;23;20017;-85
2023/01/09 10:47:57;;;;;;;12.00;5.20;;;7.00;99.90;;;;;;6150511;23;20014;-85
2023/01/09 10:50:27;;;;;;;13.18;5.55;;;7.00;99.90;;;;;;6151401;23;20018;-85
2023/01/09 10:52:55;;;;;;;13.85;5.78;;;7.00;99.90;;;;;;6126822;23;20041;-85
2023/01/09 10:55:48;;;;;;;10.65;5.32;;;7.00;99.90;;;;;;6151066;23;20037;-84
2023/01/09 10:58:19;;;;;;;15.38;6.13;;;7.00;99.90;;;;;;6152777;23;20088;-84
2023/01/09 11:00:47;;;;;;;13.02;5.45;;;7.00;99.90;;;;;;6152710;23;20040;-84
2023/01/09 11:03:16;;;;;;;12.77;6.50;;;7.00;99.90;;;;;;6150493;23;20463;-85
2023/01/09 11:05:43;;;;;;;11.27;5.45;;;7.00;99.90;;;;;;6129612;23;20018;-83
2023/01/09 11:08:10;;;;;;;14.50;6.15;;;7.20;99.90;;;;;;6153351;23;20341;-84
2023/01/09 11:10:53;;;;;;;12.07;6.22;;;7.00;99.90;;;;;;6151288;23;20088;-84
2023/01/09 11:13:31;;;;;;;12.18;6.65;;;7.00;99.90;;;;;;6152618;23;20060;-85
2023/01/09 11:16:05;;;;;;;14.48;6.28;;;7.10;99.90;;;;;;6150964;23;20353;-85
2023/01/09 11:18:33;;;;;;;13.05;6.15;;;7.10;99.90;;;;;;6150484;23;20017;-84
2023/01/09 11:21:26;;;;;;;15.95;6.68;;;7.10;99.90;;;;;;6151049;23;20013;-85
2023/01/09 11:23:52;;;;;;;14.60;6.30;;;7.10;99.90;;;;;;6150896;23;20045;-84
2023/01/09 11:26:27;;;;;;;11.98;6.30;;;7.20;99.90;;;;;;6152970;23;20021;-83
2023/01/09 11:29:08;;;;;;;12.38;6.18;;;7.30;99.90;;;;;;6125834;23;20014;-84
2023/01/09 11:31:34;;;;;;;14.20;6.78;;;7.30;99.90;;;;;;6150038;23;20013;-84
2023/01/09 11:34:00;;;;;;;14.27;6.60;;;7.30;99.90;;;;;;6150738;23;20337;-83
2023/01/09 11:36:27;;;;;;;13.98;6.38;;;7.30;99.90;;;;;;6152437;23;20014;-84
2023/01/09 11:38:56;;;;;;;13.00;6.05;;;7.30;99.90;;;;;;6152533;23;20040;-84
2023/01/09 11:41:26;;;;;;;11.75;6.45;;;7.30;99.90;;;;;;6150927;23;20045;-84
2023/01/09 11:43:55;;;;;;;14.75;6.70;;;7.40;99.90;;;;;;6150656;23;20117;-83
2023/01/09 11:46:37;;;;;;;12.82;6.75;;;7.40;99.90;;;;;;6150243;23;20114;-83
2023/01/09 11:49:10;;;;;;;16.50;7.60;;;7.40;99.90;;;;;;6150700;23;20021;-83
2023/01/09 11:51:36;;;;;;;13.35;7.72;;;7.40;99.90;;;;;;6150365;23;20095;-84
2023/01/09 11:54:31;;;;;;;15.35;7.75;;;7.40;99.90;;;;;;6150945;23;20029;-83
2023/01/09 11:56:56;;;;;;;14.88;7.70;;;7.40;99.90;;;;;;6153578;23;20083;-83
2023/01/09 11:59:26;;;;;;;13.80;8.15;;;7.40;99.90;;;;;;6150099;23;20648;-85
2023/01/09 12:02:13;;;;;;;11.55;8.20;;;7.40;99.90;;;;;;6150696;23;20017;-83
2023/01/09 12:04:48;;;;;;;11.27;7.82;;;7.50;99.90;;;;;;6151203;23;20100;-83
2023/01/09 12:07:51;;;;;;;14.35;7.97;;;7.50;99.90;;;;;;6150751;23;20149;-83
2023/01/09 12:11:18;;;;;;;13.50;7.50;;;7.60;99.90;;;;;;6147540;23;20460;-84
2023/01/09 12:13:55;;;;;;;15.27;8.32;;;7.70;99.90;;;;;;6008930;23;20024;-84
2023/01/09 12:16:21;;;;;;;12.43;8.07;;;7.80;99.90;;;;;;6004341;23;20050;-84
2023/01/09 12:18:54;;;;;;;12.27;8.25;;;7.80;99.90;;;;;;6008691;23;20473;-84
2023/01/09 12:21:23;;;;;;;;;;;8.10;99.90;;;;;;6033511;23;20019;-83
2023/01/09 12:24:09;;;;;;;11.20;7.85;;;7.90;99.90;;;;;;6032451;23;19914;-84
2023/01/09 12:26:41;;;;;;;14.50;7.90;;;7.90;99.90;;;;;;6034332;23;20022;-84
2023/01/09 12:29:28;;;;;;;10.63;7.72;;;7.90;99.90;;;;;;6010151;23;20339;-84
2023/01/09 12:32:08;;;;;;;12.85;7.65;;;7.90;99.90;;;;;;5987851;23;20050;-82
2023/01/09 12:34:53;;;;;;;14.70;7.40;;;7.90;99.90;;;;;;6034770;23;20019;-84
2023/01/09 12:37:33;;;;;;;12.20;7.38;;;7.90;99.90;;;;;;6010363;23;20026;-84
2023/01/09 12:40:28;;;;;;;11.77;7.25;;;7.80;99.90;;;;;;5986993;23;20418;-83
2023/01/09 12:43:19;;;;;;;14.23;8.02;;;7.70;99.90;;;;;;6010876;23;20019;-83
2023/01/09 12:46:01;;;;;;;15.38;8.30;;;7.70;99.90;;;;;;6011536;23;20026;-84
2023/01/09 12:48:51;;;;;;;14.90;8.20;;;7.70;99.90;;;;;;6045166;23;20022;-84
2023/01/09 12:51:19;;;;;;;13.27;8.70;;;7.70;99.90;;;;;;6152010;23;20072;-84
2023/01/09 12:54:05;;;;;;;13.25;7.88;;;7.70;99.90;;;;;;6153904;23;20014;-83
2023/01/09 12:56:36;;;;;;;12.00;8.07;;;7.70;99.90;;;;;;6126539;23;20454;-84
2023/01/09 12:59:19;;;;;;;11.20;8.07;;;7.80;99.90;;;;;;6152773;23;20329;-83
2023/01/09 13:01:48;;;;;;;14.18;8.90;;;7.70;99.90;;;;;;6151810;23;20121;-83
2023/01/09 13:04:19;;;;;;;12.30;8.15;;;7.80;99.90;;;;;;6151861;23;20539;-82
2023/01/09 13:06:50;;;;;;;17.02;8.57;;;7.80;99.90;;;;;;6153340;23;20049;-82
2023/01/09 13:09:41;;;;;;;12.15;8.65;;;7.80;99.90;;;;;;6127194;23;20021;-82
2023/01/09 13:12:14;;;;;;;14.35;9.30;;;7.80;99.90;;;;;;6151811;23;20021;-84